Time;durP1;ratioP1;P1;durP2;ratioP2;P2;SDS_P1;SDS_P2;PMS_P1;PMS_P2;Temp;Humidity;BMP_temperature;BMP_pressure;BME280_temperature;BME280_humidity;BME280_pressure;Samples;Min_cycle;Max_cycle;Signal;HPM_P1;HPM_P2
2023/06/30 00:01:50;;;;;;;9.82;1.63;;;;;;;;;;4917900;28;20050;-70
2023/06/30 00:04:18;;;;;;;9.75;1.77;;;;;;;;;;4917449;28;20097;-68
2023/06/30 00:06:44;;;;;;;6.90;1.65;;;;;;;;;;4938274;28;20045;-69
2023/06/30 00:09:10;;;;;;;3.45;1.42;;;;;;;;;;4938346;28;20050;-68
2023/06/30 00:11:38;;;;;;;6.40;1.33;;;;;;;;;;4919198;28;20034;-69
2023/06/30 00:14:03;;;;;;;9.57;1.92;;;;;;;;;;4916630;28;20043;-68
2023/06/30 00:16:29;;;;;;;7.78;2.00;;;;;;;;;;4936470;28;20125;-70
2023/06/30 00:18:55;;;;;;;6.68;1.58;;;;;;;;;;4938098;28;20059;-68
2023/06/30 00:21:21;;;;;;;5.95;1.55;;;;;;;;;;4937096;28;20172;-69
2023/06/30 00:23:46;;;;;;;8.40;1.95;;;;;;;;;;4938245;28;20179;-70
2023/06/30 00:26:12;;;;;;;11.20;2.00;;;;;;;;;;4938146;28;20626;-69
2023/06/30 00:28:37;;;;;;;9.38;1.77;;;;;;;;;;4938220;28;20770;-70
2023/06/30 00:31:02;;;;;;;8.13;1.70;;;;;;;;;;4937693;28;20731;-70
2023/06/30 00:33:28;;;;;;;9.18;2.10;;;;;;;;;;4939392;28;20042;-69
2023/06/30 00:35:53;;;;;;;7.55;1.60;;;;;;;;;;4937638;28;20188;-69
2023/06/30 00:38:19;;;;;;;3.75;1.50;;;;;;;;;;4938232;28;20038;-70
2023/06/30 00:40:44;;;;;;;9.27;1.95;;;;;;;;;;4937715;28;20043;-67
2023/06/30 00:43:13;;;;;;;6.97;1.73;;;;;;;;;;4937512;28;20053;-69
2023/06/30 00:45:38;;;;;;;8.43;2.05;;;;;;;;;;4935098;28;20043;-67
2023/06/30 00:48:04;;;;;;;8.95;1.40;;;;;;;;;;4937280;28;20053;-67
2023/06/30 00:50:29;;;;;;;6.38;1.75;;;;;;;;;;4934087;28;20073;-67
2023/06/30 00:52:55;;;;;;;8.65;1.85;;;;;;;;;;4921168;28;20042;-68
2023/06/30 00:55:21;;;;;;;4.32;1.45;;;;;;;;;;4937086;28;20177;-68
2023/06/30 00:57:46;;;;;;;9.07;1.77;;;;;;;;;;4938628;28;20136;-68
2023/06/30 01:00:11;;;;;;;7.35;1.67;;;;;;;;;;4921156;28;20047;-68
2023/06/30 01:02:43;;;;;;;7.28;1.40;;;;;;;;;;4935430;28;20352;-68
2023/06/30 01:05:11;;;;;;;7.28;1.52;;;;;;;;;;4938257;28;20764;-67
2023/06/30 01:07:44;;;;;;;7.68;1.67;;;;;;;;;;4920656;28;20121;-67
2023/06/30 01:10:13;;;;;;;6.68;1.20;;;;;;;;;;4936021;28;20045;-68
2023/06/30 01:12:38;;;;;;;6.18;1.52;;;;;;;;;;4936969;28;20041;-68
2023/06/30 01:15:07;;;;;;;6.38;1.50;;;;;;;;;;4938079;28;20439;-66
2023/06/30 01:17:33;;;;;;;4.68;1.20;;;;;;;;;;4935908;28;20026;-68
2023/06/30 01:19:59;;;;;;;7.18;1.20;;;;;;;;;;4919948;28;20034;-68
2023/06/30 01:22:30;;;;;;;7.85;1.40;;;;;;;;;;4937086;28;20051;-68
2023/06/30 01:24:57;;;;;;;6.60;1.40;;;;;;;;;;4936993;28;20070;-68
2023/06/30 01:27:23;;;;;;;5.97;1.55;;;;;;;;;;4937388;28;20527;-66
2023/06/30 01:29:50;;;;;;;7.65;1.50;;;;;;;;;;4936723;28;20212;-65
2023/06/30 01:32:23;;;;;;;7.32;1.77;;;;;;;;;;4900561;28;20038;-67
2023/06/30 01:34:48;;;;;;;8.70;1.65;;;;;;;;;;4936107;28;20038;-68
2023/06/30 01:37:14;;;;;;;9.45;1.98;;;;;;;;;;4934844;28;20050;-67
2023/06/30 01:39:42;;;;;;;6.18;1.50;;;;;;;;;;4915353;28;20496;-67
2023/06/30 01:42:08;;;;;;;9.65;1.70;;;;;;;;;;4937272;28;20097;-69
2023/06/30 01:44:34;;;;;;;9.60;1.70;;;;;;;;;;4936876;28;20042;-67
2023/06/30 01:47:01;;;;;;;9.23;2.03;;;;;;;;;;4937573;28;20043;-68
2023/06/30 01:49:27;;;;;;;7.43;1.50;;;;;;;;;;4924798;28;20130;-67
2023/06/30 01:51:52;;;;;;;9.70;1.70;;;;;;;;;;4915163;28;20049;-67
2023/06/30 01:54:18;;;;;;;11.35;2.40;;;;;;;;;;4912732;28;20040;-67
2023/06/30 01:56:47;;;;;;;8.05;1.83;;;;;;;;;;4937111;28;20279;-66
2023/06/30 01:59:15;;;;;;;7.38;1.85;;;;;;;;;;4924784;28;20108;-69
2023/06/30 02:01:40;;;;;;;8.85;2.00;;;;;;;;;;4914160;28;20314;-68
2023/06/30 02:04:06;;;;;;;7.18;1.55;;;;;;;;;;4936239;28;20038;-69
2023/06/30 02:06:31;;;;;;;9.52;2.35;;;;;;;;;;4918286;28;20108;-68
2023/06/30 02:08:57;;;;;;;10.93;2.28;;;;;;;;;;4937026;28;20046;-69
2023/06/30 02:11:22;;;;;;;11.52;2.15;;;;;;;;;;4936299;28;20510;-68
2023/06/30 02:13:48;;;;;;;13.38;2.03;;;;;;;;;;4937050;28;20133;-68
2023/06/30 02:16:13;;;;;;;10.32;1.83;;;;;;;;;;4926225;28;20033;-67
2023/06/30 02:18:39;;;;;;;11.82;2.17;;;;;;;;;;4931712;28;20031;-69
2023/06/30 02:21:05;;;;;;;12.18;2.00;;;;;;;;;;4913045;28;20047;-68
2023/06/30 02:23:30;;;;;;;10.55;2.17;;;;;;;;;;4926592;28;20141;-68
2023/06/30 02:25:55;;;;;;;9.70;2.00;;;;;;;;;;4934944;28;20043;-68
2023/06/30 02:28:21;;;;;;;10.80;2.30;;;;;;;;;;4935868;28;20496;-68
2023/06/30 02:30:46;;;;;;;6.57;2.40;;;;;;;;;;4934936;28;20580;-68
2023/06/30 02:33:11;;;;;;;9.52;1.75;;;;;;;;;;4935285;28;20133;-69
2023/06/30 02:35:37;;;;;;;15.13;2.38;;;;;;;;;;4936671;28;20492;-67
2023/06/30 02:38:03;;;;;;;8.60;1.83;;;;;;;;;;4935973;28;20055;-69
2023/06/30 02:40:29;;;;;;;10.05;2.47;;;;;;;;;;4936447;28;20508;-69
2023/06/30 02:42:55;;;;;;;8.02;2.00;;;;;;;;;;4933445;28;20526;-69
2023/06/30 02:45:20;;;;;;;21.50;2.97;;;;;;;;;;4915764;28;20035;-69
2023/06/30 02:47:46;;;;;;;8.57;2.20;;;;;;;;;;4935364;28;20511;-68
2023/06/30 02:50:11;;;;;;;9.05;1.95;;;;;;;;;;4934581;28;20047;-68
2023/06/30 02:52:39;;;;;;;8.82;2.00;;;;;;;;;;4935548;28;20185;-68
2023/06/30 02:55:09;;;;;;;11.05;2.00;;;;;;;;;;4939372;28;20031;-68
2023/06/30 02:57:35;;;;;;;10.88;2.38;;;;;;;;;;4939861;28;20031;-68
2023/06/30 03:00:00;;;;;;;9.82;2.00;;;;;;;;;;4941262;28;20062;-68
2023/06/30 03:02:26;;;;;;;9.20;1.85;;;;;;;;;;4940299;28;20043;-68
2023/06/30 03:04:51;;;;;;;10.35;2.35;;;;;;;;;;4939719;28;20034;-68
2023/06/30 03:07:16;;;;;;;10.90;2.00;;;;;;;;;;4927065;28;20711;-69
2023/06/30 03:09:43;;;;;;;7.55;1.70;;;;;;;;;;4929427;28;20034;-68
2023/06/30 03:12:08;;;;;;;10.25;2.13;;;;;;;;;;4918871;28;20098;-68
2023/06/30 03:14:34;;;;;;;8.93;2.40;;;;;;;;;;4938401;28;20062;-68
2023/06/30 03:16:59;;;;;;;9.73;2.22;;;;;;;;;;4938295;28;20039;-68
2023/06/30 03:19:24;;;;;;;9.18;2.50;;;;;;;;;;4939054;28;21895;-68
2023/06/30 03:21:50;;;;;;;10.05;2.10;;;;;;;;;;4939915;28;20051;-68
2023/06/30 03:24:15;;;;;;;10.25;2.22;;;;;;;;;;4939543;28;20035;-68
2023/06/30 03:26:41;;;;;;;9.52;2.17;;;;;;;;;;4927980;28;20758;-65
2023/06/30 03:29:08;;;;;;;11.10;2.33;;;;;;;;;;4939659;28;20089;-68
2023/06/30 03:31:34;;;;;;;10.63;2.60;;;;;;;;;;4936631;28;20039;-68
2023/06/30 03:33:59;;;;;;;11.50;2.25;;;;;;;;;;4899781;28;20538;-68
2023/06/30 03:36:24;;;;;;;11.15;2.05;;;;;;;;;;4938611;28;20051;-68
2023/06/30 03:38:50;;;;;;;5.47;1.80;;;;;;;;;;4937094;28;20085;-68
2023/06/30 03:41:15;;;;;;;10.05;2.35;;;;;;;;;;4937490;28;20542;-68
2023/06/30 03:43:44;;;;;;;9.05;2.50;;;;;;;;;;4938122;28;20130;-68
2023/06/30 03:46:11;;;;;;;9.52;2.20;;;;;;;;;;4936180;28;20173;-68
2023/06/30 03:48:37;;;;;;;13.63;2.08;;;;;;;;;;4916835;28;20132;-68
2023/06/30 03:51:02;;;;;;;8.77;2.13;;;;;;;;;;4930072;28;20184;-69
2023/06/30 03:53:28;;;;;;;12.00;2.00;;;;;;;;;;4939053;28;20042;-69
2023/06/30 03:55:53;;;;;;;7.35;1.88;;;;;;;;;;4915510;28;20031;-69
2023/06/30 03:58:21;;;;;;;9.32;2.50;;;;;;;;;;4926413;28;20318;-69
2023/06/30 04:00:46;;;;;;;11.27;2.45;;;;;;;;;;4937396;28;20177;-68
2023/06/30 04:03:12;;;;;;;8.50;1.85;;;;;;;;;;4924595;28;20456;-67
2023/06/30 04:05:39;;;;;;;13.80;2.25;;;;;;;;;;4927189;28;20043;-68
2023/06/30 04:08:09;;;;;;;9.95;2.03;;;;;;;;;;4936241;28;20157;-68
2023/06/30 04:10:37;;;;;;;11.23;2.22;;;;;;;;;;4936937;28;22039;-69
2023/06/30 04:13:06;;;;;;;12.13;2.38;;;;;;;;;;4937858;28;20395;-69
2023/06/30 04:15:31;;;;;;;10.48;2.67;;;;;;;;;;4916901;28;20328;-69
2023/06/30 04:17:59;;;;;;;7.25;2.05;;;;;;;;;;4932287;28;20088;-68
2023/06/30 04:20:27;;;;;;;13.98;2.42;;;;;;;;;;4937142;28;20039;-67
2023/06/30 04:22:52;;;;;;;14.35;2.70;;;;;;;;;;4918604;28;20039;-68
2023/06/30 04:25:17;;;;;;;12.00;2.50;;;;;;;;;;4941495;28;20041;-67
2023/06/30 04:27:43;;;;;;;7.40;2.25;;;;;;;;;;4938505;28;20035;-67
2023/06/30 04:30:08;;;;;;;8.50;2.47;;;;;;;;;;4936394;28;20087;-67
2023/06/30 04:32:33;;;;;;;11.20;2.47;;;;;;;;;;4914983;28;20399;-67
2023/06/30 04:35:01;;;;;;;11.02;2.28;;;;;;;;;;4938478;28;20030;-67
2023/06/30 04:37:28;;;;;;;6.82;2.20;;;;;;;;;;4925237;28;20476;-68
2023/06/30 04:39:55;;;;;;;11.27;3.10;;;;;;;;;;4939028;28;20576;-67
2023/06/30 04:42:20;;;;;;;8.38;2.13;;;;;;;;;;4939028;28;20081;-67
2023/06/30 04:44:45;;;;;;;7.40;2.10;;;;;;;;;;4938007;28;20166;-66
2023/06/30 04:47:11;;;;;;;12.73;2.42;;;;;;;;;;4938756;28;20101;-67
2023/06/30 04:49:39;;;;;;;12.43;2.53;;;;;;;;;;4936610;28;20073;-69
2023/06/30 04:52:05;;;;;;;8.98;2.75;;;;;;;;;;4937584;28;20061;-67
2023/06/30 04:54:30;;;;;;;8.32;2.40;;;;;;;;;;4935339;28;20125;-68
2023/06/30 04:56:56;;;;;;;9.73;2.22;;;;;;;;;;4939644;28;20047;-66
2023/06/30 04:59:22;;;;;;;8.38;2.30;;;;;;;;;;4900428;28;20162;-68
2023/06/30 05:01:47;;;;;;;9.27;2.17;;;;;;;;;;4914808;28;20050;-68
2023/06/30 05:04:13;;;;;;;10.10;2.45;;;;;;;;;;4928354;28;20035;-68
2023/06/30 05:06:39;;;;;;;6.57;2.05;;;;;;;;;;4935265;28;20031;-68
2023/06/30 05:09:07;;;;;;;8.38;2.50;;;;;;;;;;4936946;28;20030;-68
2023/06/30 05:11:37;;;;;;;7.03;2.17;;;;;;;;;;4918712;28;20517;-71
2023/06/30 05:14:02;;;;;;;12.60;2.50;;;;;;;;;;4937478;28;20506;-72
2023/06/30 05:16:28;;;;;;;11.10;2.13;;;;;;;;;;4923696;28;20039;-70
2023/06/30 05:18:53;;;;;;;9.00;2.50;;;;;;;;;;4915181;28;20042;-71
2023/06/30 05:21:21;;;;;;;13.52;2.22;;;;;;;;;;4931231;28;20043;-69
2023/06/30 05:23:49;;;;;;;7.18;2.08;;;;;;;;;;4936981;28;20043;-71
2023/06/30 05:26:14;;;;;;;6.80;1.70;;;;;;;;;;4937820;28;20049;-71
2023/06/30 05:28:39;;;;;;;9.70;2.15;;;;;;;;;;4936459;28;20039;-70
2023/06/30 05:31:05;;;;;;;6.95;1.80;;;;;;;;;;4934223;28;20043;-69
2023/06/30 05:33:33;;;;;;;7.45;1.67;;;;;;;;;;4937129;28;20046;-70
2023/06/30 05:35:58;;;;;;;7.80;2.03;;;;;;;;;;4936924;28;20060;-70
2023/06/30 05:38:23;;;;;;;7.68;1.75;;;;;;;;;;4935677;28;20050;-70
2023/06/30 05:40:49;;;;;;;6.80;1.67;;;;;;;;;;4936830;28;20037;-70
2023/06/30 05:43:14;;;;;;;11.00;2.05;;;;;;;;;;4936096;28;20570;-70
2023/06/30 05:45:39;;;;;;;6.70;1.88;;;;;;;;;;4937782;28;20138;-70
2023/06/30 05:48:05;;;;;;;6.70;1.85;;;;;;;;;;4936757;28;20122;-69
2023/06/30 05:50:31;;;;;;;10.57;2.00;;;;;;;;;;4936184;28;20043;-69
2023/06/30 05:52:58;;;;;;;7.80;1.88;;;;;;;;;;4936949;28;20050;-70
2023/06/30 05:55:23;;;;;;;12.35;1.90;;;;;;;;;;4933910;28;20031;-68
2023/06/30 05:57:49;;;;;;;4.97;1.58;;;;;;;;;;4925824;28;20101;-71
2023/06/30 06:00:14;;;;;;;7.25;1.80;;;;;;;;;;4914699;28;20034;-70
2023/06/30 06:02:42;;;;;;;9.43;1.92;;;;;;;;;;4918569;28;21864;-69
2023/06/30 06:05:08;;;;;;;5.30;1.63;;;;;;;;;;4936959;28;21966;-71
2023/06/30 06:07:34;;;;;;;8.02;1.88;;;;;;;;;;4917353;28;20272;-72
2023/06/30 06:09:59;;;;;;;4.68;1.40;;;;;;;;;;4934250;28;20042;-70
2023/06/30 06:12:25;;;;;;;7.53;1.90;;;;;;;;;;4918489;28;20542;-69
2023/06/30 06:14:50;;;;;;;6.68;1.50;;;;;;;;;;4936879;28;20909;-69
2023/06/30 06:17:15;;;;;;;8.80;1.70;;;;;;;;;;4935202;28;20046;-70
2023/06/30 06:19:41;;;;;;;8.75;1.73;;;;;;;;;;4935844;28;20439;-71
2023/06/30 06:22:06;;;;;;;6.45;1.67;;;;;;;;;;4935292;28;20193;-70
2023/06/30 06:24:32;;;;;;;5.93;1.50;;;;;;;;;;4934610;28;20260;-70
2023/06/30 06:26:57;;;;;;;8.10;1.77;;;;;;;;;;4935014;28;20492;-69
2023/06/30 06:29:23;;;;;;;5.97;1.52;;;;;;;;;;4919366;28;20035;-71
2023/06/30 06:31:49;;;;;;;6.18;1.73;;;;;;;;;;4938964;28;20743;-69
2023/06/30 06:34:14;;;;;;;8.02;1.98;;;;;;;;;;4940099;28;20054;-71
2023/06/30 06:36:40;;;;;;;5.82;1.63;;;;;;;;;;4938503;28;20202;-66
2023/06/30 06:39:05;;;;;;;5.85;1.30;;;;;;;;;;4934588;28;20095;-72
2023/06/30 06:41:31;;;;;;;8.90;1.77;;;;;;;;;;4937783;28;21556;-71
2023/06/30 06:43:56;;;;;;;5.60;1.63;;;;;;;;;;4916023;28;20038;-70
2023/06/30 06:46:21;;;;;;;7.00;1.50;;;;;;;;;;4940175;28;20075;-71
2023/06/30 06:48:47;;;;;;;10.05;1.90;;;;;;;;;;4937760;28;20042;-70
2023/06/30 06:51:15;;;;;;;6.70;1.50;;;;;;;;;;4938520;28;20084;-72
2023/06/30 06:53:41;;;;;;;8.52;1.60;;;;;;;;;;4918673;28;20042;-70
2023/06/30 06:56:08;;;;;;;7.35;1.40;;;;;;;;;;4939926;28;20133;-72
2023/06/30 06:58:40;;;;;;;5.82;1.40;;;;;;;;;;4919919;28;20480;-72
2023/06/30 07:01:06;;;;;;;3.80;1.30;;;;;;;;;;4922342;28;20047;-70
2023/06/30 07:03:32;;;;;;;3.78;1.30;;;;;;;;;;4935338;28;20027;-69
2023/06/30 07:05:57;;;;;;;5.00;1.20;;;;;;;;;;4924985;28;20042;-70
2023/06/30 07:08:23;;;;;;;4.25;1.20;;;;;;;;;;4941255;28;20035;-69
2023/06/30 07:10:50;;;;;;;6.97;1.40;;;;;;;;;;4941463;28;20443;-69
2023/06/30 07:13:17;;;;;;;5.43;1.25;;;;;;;;;;4941014;28;20031;-68
2023/06/30 07:15:42;;;;;;;5.20;1.33;;;;;;;;;;4938713;28;20733;-69
2023/06/30 07:18:07;;;;;;;5.45;1.20;;;;;;;;;;4940701;28;20043;-68
2023/06/30 07:20:33;;;;;;;10.10;1.60;;;;;;;;;;4936544;28;20267;-70
2023/06/30 07:22:58;;;;;;;13.00;1.92;;;;;;;;;;4929210;28;20042;-73
2023/06/30 07:25:27;;;;;;;9.32;1.40;;;;;;;;;;4939674;28;20556;-74
2023/06/30 07:27:56;;;;;;;16.65;2.28;;;;;;;;;;4941440;28;20110;-71
2023/06/30 07:30:23;;;;;;;20.30;2.03;;;;;;;;;;4938078;28;20539;-73
2023/06/30 07:32:49;;;;;;;5.32;1.20;;;;;;;;;;4941617;28;20047;-69
2023/06/30 07:35:15;;;;;;;12.88;1.40;;;;;;;;;;4919496;28;20585;-74
2023/06/30 07:37:41;;;;;;;13.65;1.55;;;;;;;;;;4941599;28;20031;-71
2023/06/30 07:40:06;;;;;;;8.90;1.50;;;;;;;;;;4938681;28;20499;-73
2023/06/30 07:42:32;;;;;;;9.55;1.63;;;;;;;;;;4939839;28;20047;-72
2023/06/30 07:44:57;;;;;;;7.70;1.30;;;;;;;;;;4939187;28;20046;-72
2023/06/30 07:47:22;;;;;;;3.97;1.35;;;;;;;;;;4940324;28;20044;-70
2023/06/30 07:49:50;;;;;;;4.90;1.20;;;;;;;;;;4911143;28;20070;-70
2023/06/30 07:52:15;;;;;;;6.43;1.30;;;;;;;;;;4938888;28;20050;-70
2023/06/30 07:54:43;;;;;;;4.38;1.27;;;;;;;;;;4940851;28;20478;-72
2023/06/30 07:57:08;;;;;;;7.95;1.50;;;;;;;;;;4940475;28;20520;-72
2023/06/30 07:59:33;;;;;;;5.97;1.20;;;;;;;;;;4917705;28;20038;-71
2023/06/30 08:01:59;;;;;;;7.32;1.20;;;;;;;;;;4940286;28;20199;-72
2023/06/30 08:04:24;;;;;;;2.78;1.02;;;;;;;;;;4939231;28;20035;-70
2023/06/30 08:06:50;;;;;;;5.50;1.48;;;;;;;;;;4938519;28;20526;-69
2023/06/30 08:09:17;;;;;;;4.93;1.20;;;;;;;;;;4918627;28;20570;-72
2023/06/30 08:11:43;;;;;;;4.68;1.30;;;;;;;;;;4938127;28;20046;-73
2023/06/30 08:14:08;;;;;;;5.50;1.17;;;;;;;;;;4939356;28;20038;-71
2023/06/30 08:16:33;;;;;;;4.93;1.13;;;;;;;;;;4940017;28;20039;-71
2023/06/30 08:18:59;;;;;;;4.00;1.17;;;;;;;;;;4938123;28;20057;-69
2023/06/30 08:21:24;;;;;;;4.72;1.65;;;;;;;;;;4940124;28;20054;-71
2023/06/30 08:23:52;;;;;;;5.70;1.17;;;;;;;;;;4940921;28;20047;-71
2023/06/30 08:26:19;;;;;;;6.43;1.10;;;;;;;;;;4909398;28;20051;-70
2023/06/30 08:28:45;;;;;;;6.30;1.40;;;;;;;;;;4941481;28;20036;-73
2023/06/30 08:31:12;;;;;;;3.72;1.10;;;;;;;;;;4941669;28;20309;-72
2023/06/30 08:33:38;;;;;;;22.50;2.03;;;;;;;;;;4922429;28;20214;-71
2023/06/30 08:36:04;;;;;;;30.63;3.00;;;;;;;;;;4940214;28;21863;-72
2023/06/30 08:38:29;;;;;;;11.18;1.77;;;;;;;;;;4939048;28;20039;-72
2023/06/30 08:40:54;;;;;;;13.30;1.80;;;;;;;;;;4940281;28;20054;-70
2023/06/30 08:43:24;;;;;;;16.40;1.90;;;;;;;;;;4939762;28;20078;-74
2023/06/30 08:45:52;;;;;;;8.35;1.35;;;;;;;;;;4928254;28;20164;-69
2023/06/30 08:48:19;;;;;;;4.40;1.15;;;;;;;;;;4939235;28;20567;-69
2023/06/30 08:50:45;;;;;;;4.60;1.20;;;;;;;;;;4913067;28;20042;-69
2023/06/30 08:53:10;;;;;;;31.85;3.65;;;;;;;;;;4915780;28;20031;-70
2023/06/30 08:55:36;;;;;;;4.18;1.30;;;;;;;;;;4897890;28;20176;-72
2023/06/30 08:58:01;;;;;;;6.30;1.48;;;;;;;;;;4919218;28;20359;-69
2023/06/30 09:00:26;;;;;;;10.10;1.73;;;;;;;;;;4935165;28;20043;-71
2023/06/30 09:02:55;;;;;;;13.15;1.35;;;;;;;;;;4917749;28;20051;-71
2023/06/30 09:05:23;;;;;;;4.75;1.30;;;;;;;;;;4918288;28;20047;-69
2023/06/30 09:07:57;;;;;;;4.32;1.30;;;;;;;;;;4914701;28;20042;-71
2023/06/30 09:10:23;;;;;;;5.85;1.30;;;;;;;;;;4919096;28;20967;-72
2023/06/30 09:12:50;;;;;;;4.22;1.25;;;;;;;;;;4919530;28;20042;-70
2023/06/30 09:15:22;;;;;;;4.57;1.30;;;;;;;;;;4899084;28;20127;-72
2023/06/30 09:17:47;;;;;;;3.83;1.23;;;;;;;;;;4919274;28;20055;-71
2023/06/30 09:20:16;;;;;;;7.43;1.63;;;;;;;;;;4918153;28;20152;-71
2023/06/30 09:22:41;;;;;;;6.00;1.30;;;;;;;;;;4918022;28;20071;-70
2023/06/30 09:25:27;;;;;;;5.07;1.42;;;;;;;;;;4917290;28;20118;-71
2023/06/30 09:27:55;;;;;;;6.60;1.52;;;;;;;;;;4916570;28;20114;-71
2023/06/30 09:30:32;;;;;;;7.60;1.30;;;;;;;;;;4913395;28;20035;-69
2023/06/30 09:32:58;;;;;;;4.07;1.45;;;;;;;;;;4906898;28;20472;-72
2023/06/30 09:35:23;;;;;;;5.30;1.50;;;;;;;;;;4914859;28;20067;-73
2023/06/30 09:37:48;;;;;;;4.82;1.50;;;;;;;;;;4917675;28;20665;-72
2023/06/30 09:40:14;;;;;;;6.88;1.50;;;;;;;;;;4919303;28;20476;-72
2023/06/30 09:42:40;;;;;;;4.18;1.60;;;;;;;;;;4917964;28;20546;-69
2023/06/30 09:45:05;;;;;;;6.93;1.48;;;;;;;;;;4919837;28;20035;-70
2023/06/30 09:47:33;;;;;;;15.50;1.83;;;;;;;;;;4908045;28;20074;-73
2023/06/30 09:49:58;;;;;;;10.38;1.60;;;;;;;;;;4930671;28;20415;-70
2023/06/30 09:52:25;;;;;;;8.13;1.58;;;;;;;;;;4918558;28;20043;-68
2023/06/30 09:54:50;;;;;;;6.22;1.40;;;;;;;;;;4895851;28;20596;-72
2023/06/30 09:57:18;;;;;;;9.00;1.50;;;;;;;;;;4917474;28;20036;-71
2023/06/30 09:59:45;;;;;;;3.70;1.20;;;;;;;;;;4918528;28;20550;-71
2023/06/30 10:02:12;;;;;;;6.90;1.75;;;;;;;;;;4918300;28;20143;-68
2023/06/30 10:04:37;;;;;;;5.28;1.30;;;;;;;;;;4887111;28;20409;-73
2023/06/30 10:07:03;;;;;;;5.38;1.20;;;;;;;;;;4918831;28;20039;-72
2023/06/30 10:09:29;;;;;;;6.70;1.52;;;;;;;;;;4915285;28;20041;-71
2023/06/30 10:11:56;;;;;;;9.38;1.55;;;;;;;;;;4914793;28;20057;-71
2023/06/30 10:14:29;;;;;;;10.65;1.50;;;;;;;;;;4918292;28;20067;-70
2023/06/30 10:16:59;;;;;;;9.48;1.63;;;;;;;;;;4917492;28;20047;-71
2023/06/30 10:19:24;;;;;;;6.65;1.50;;;;;;;;;;4902561;28;20043;-72
2023/06/30 10:21:50;;;;;;;5.82;1.42;;;;;;;;;;4918767;28;20043;-72
2023/06/30 10:24:17;;;;;;;4.75;1.20;;;;;;;;;;4915441;28;21057;-70
2023/06/30 10:26:42;;;;;;;6.05;1.40;;;;;;;;;;4917728;28;20043;-70
2023/06/30 10:29:08;;;;;;;5.40;1.63;;;;;;;;;;4908919;28;20233;-72
2023/06/30 10:31:34;;;;;;;5.72;1.50;;;;;;;;;;4917471;28;20042;-70
2023/06/30 10:34:00;;;;;;;10.43;1.50;;;;;;;;;;4907910;28;20143;-73
2023/06/30 10:36:25;;;;;;;8.65;1.88;;;;;;;;;;4897260;28;20035;-72
2023/06/30 10:38:51;;;;;;;9.77;1.50;;;;;;;;;;4915745;28;20110;-74
2023/06/30 10:41:19;;;;;;;7.65;1.45;;;;;;;;;;4909123;28;20047;-71
2023/06/30 10:44:02;;;;;;;5.57;1.50;;;;;;;;;;4915190;28;20043;-71
2023/06/30 10:46:53;;;;;;;7.55;1.77;;;;;;;;;;4918324;28;20044;-73
2023/06/30 10:49:31;;;;;;;7.53;1.58;;;;;;;;;;4908609;28;20059;-73
2023/06/30 10:51:58;;;;;;;7.78;1.55;;;;;;;;;;4931019;28;20152;-70
2023/06/30 10:54:27;;;;;;;8.65;1.80;;;;;;;;;;4916753;28;20070;-71
2023/06/30 10:57:16;;;;;;;8.77;1.60;;;;;;;;;;4921991;28;20035;-70
2023/06/30 10:59:42;;;;;;;10.02;1.83;;;;;;;;;;4923656;28;20526;-73
2023/06/30 11:02:11;;;;;;;7.43;1.77;;;;;;;;;;4933166;28;20302;-72
2023/06/30 11:04:37;;;;;;;6.70;1.63;;;;;;;;;;4912584;28;20043;-73
2023/06/30 11:07:03;;;;;;;4.28;1.58;;;;;;;;;;4931457;28;20389;-72
2023/06/30 11:09:48;;;;;;;7.75;1.90;;;;;;;;;;4921548;28;20172;-73
2023/06/30 11:12:14;;;;;;;11.55;1.80;;;;;;;;;;4935535;28;20118;-71
2023/06/30 11:14:49;;;;;;;7.88;2.13;;;;;;;;;;4936405;28;20423;-70
2023/06/30 11:17:15;;;;;;;5.75;1.60;;;;;;;;;;4921051;28;20038;-71
2023/06/30 11:19:54;;;;;;;8.07;2.30;;;;;;;;;;4921311;28;20443;-70
2023/06/30 11:22:29;;;;;;;9.65;1.90;;;;;;;;;;4937552;28;20054;-72
2023/06/30 11:24:55;;;;;;;4.60;1.70;;;;;;;;;;4939825;28;20177;-69
2023/06/30 11:27:21;;;;;;;7.03;2.15;;;;;;;;;;4938449;28;20117;-70
2023/06/30 11:29:47;;;;;;;7.28;2.00;;;;;;;;;;4918222;28;20046;-69
2023/06/30 11:32:15;;;;;;;6.88;1.80;;;;;;;;;;4934592;28;20042;-72
2023/06/30 11:34:41;;;;;;;9.05;1.83;;;;;;;;;;4922084;28;20405;-70
2023/06/30 11:37:06;;;;;;;12.15;2.00;;;;;;;;;;4939571;28;20059;-72
2023/06/30 11:39:34;;;;;;;4.22;1.70;;;;;;;;;;4928914;28;20118;-72
2023/06/30 11:41:59;;;;;;;5.93;1.67;;;;;;;;;;4936347;28;20814;-72
2023/06/30 11:44:24;;;;;;;8.30;2.00;;;;;;;;;;4932242;28;20042;-71
2023/06/30 11:46:51;;;;;;;10.13;1.92;;;;;;;;;;4926984;28;20031;-70
2023/06/30 11:49:19;;;;;;;9.98;1.50;;;;;;;;;;4934121;28;20047;-70
2023/06/30 11:51:47;;;;;;;4.90;1.40;;;;;;;;;;4920635;28;20130;-70
2023/06/30 11:54:16;;;;;;;14.38;1.90;;;;;;;;;;4936660;28;20097;-68
2023/06/30 11:56:41;;;;;;;14.73;2.25;;;;;;;;;;4937028;28;20058;-71
2023/06/30 11:59:07;;;;;;;12.38;2.00;;;;;;;;;;4934258;28;20039;-71
2023/06/30 12:01:32;;;;;;;15.25;2.00;;;;;;;;;;4936717;28;20126;-69
2023/06/30 12:03:59;;;;;;;15.73;1.95;;;;;;;;;;4931719;28;20498;-69
2023/06/30 12:06:30;;;;;;;15.75;2.40;;;;;;;;;;4919099;28;20039;-71
2023/06/30 12:08:57;;;;;;;15.02;2.20;;;;;;;;;;4935500;28;20534;-71
2023/06/30 12:11:23;;;;;;;22.48;3.00;;;;;;;;;;4937849;28;20031;-71
2023/06/30 12:13:50;;;;;;;20.88;2.97;;;;;;;;;;4913986;28;20047;-71
2023/06/30 12:16:15;;;;;;;17.50;2.20;;;;;;;;;;4913958;28;20049;-72
2023/06/30 12:18:43;;;;;;;17.75;2.67;;;;;;;;;;4915103;28;20357;-72
2023/06/30 12:21:09;;;;;;;32.50;3.70;;;;;;;;;;4934840;28;20593;-71
2023/06/30 12:23:39;;;;;;;33.83;4.25;;;;;;;;;;4913548;28;20046;-72
2023/06/30 12:26:04;;;;;;;22.95;4.47;;;;;;;;;;4933395;28;20034;-67
2023/06/30 12:28:32;;;;;;;25.27;4.63;;;;;;;;;;4934808;28;20057;-71
2023/06/30 12:30:58;;;;;;;26.08;4.45;;;;;;;;;;4932859;28;21822;-68
2023/06/30 12:33:23;;;;;;;28.80;5.13;;;;;;;;;;4935287;28;20054;-70
2023/06/30 12:35:49;;;;;;;24.70;4.88;;;;;;;;;;4916667;28;20807;-68
2023/06/30 12:38:14;;;;;;;22.02;4.70;;;;;;;;;;4937498;28;20039;-68
2023/06/30 12:40:42;;;;;;;15.63;4.35;;;;;;;;;;4935878;28;20038;-71
2023/06/30 12:43:10;;;;;;;12.73;4.07;;;;;;;;;;4936518;28;20069;-71
2023/06/30 12:45:36;;;;;;;31.00;5.32;;;;;;;;;;4926346;28;20035;-72
2023/06/30 12:48:01;;;;;;;11.68;4.25;;;;;;;;;;4917523;28;22266;-71
2023/06/30 12:50:27;;;;;;;18.02;4.97;;;;;;;;;;4936169;28;20278;-69
2023/06/30 12:52:52;;;;;;;22.52;5.15;;;;;;;;;;4938408;28;20061;-71
2023/06/30 12:55:22;;;;;;;28.20;4.88;;;;;;;;;;4926201;28;20035;-71
2023/06/30 12:57:48;;;;;;;22.77;4.80;;;;;;;;;;4929802;28;20039;-70
2023/06/30 13:00:16;;;;;;;22.77;4.47;;;;;;;;;;4938487;28;20035;-70
2023/06/30 13:02:44;;;;;;;29.98;4.95;;;;;;;;;;4937428;28;20448;-69
2023/06/30 13:05:10;;;;;;;17.38;3.80;;;;;;;;;;4929042;28;20043;-72
2023/06/30 13:07:35;;;;;;;21.30;4.00;;;;;;;;;;4911262;28;22201;-74
2023/06/30 13:10:02;;;;;;;11.45;3.40;;;;;;;;;;4916497;28;20470;-72
2023/06/30 13:12:29;;;;;;;13.10;3.80;;;;;;;;;;4938540;28;20042;-73
2023/06/30 13:14:54;;;;;;;17.10;3.33;;;;;;;;;;4926805;28;20043;-69
2023/06/30 13:17:20;;;;;;;18.60;3.83;;;;;;;;;;4936580;28;20301;-72
2023/06/30 13:19:47;;;;;;;23.27;4.43;;;;;;;;;;4938788;28;20125;-73
2023/06/30 13:22:13;;;;;;;27.52;4.15;;;;;;;;;;4937794;28;20047;-70
2023/06/30 13:24:39;;;;;;;16.70;4.10;;;;;;;;;;4938515;28;20042;-69
2023/06/30 13:27:04;;;;;;;24.52;4.40;;;;;;;;;;4917475;28;22140;-73
2023/06/30 13:29:34;;;;;;;16.20;3.72;;;;;;;;;;4938108;28;20109;-72
2023/06/30 13:32:00;;;;;;;16.20;3.90;;;;;;;;;;4937965;28;20571;-75
2023/06/30 13:34:25;;;;;;;18.85;3.35;;;;;;;;;;4935308;28;20043;-75
2023/06/30 13:36:50;;;;;;;21.35;4.35;;;;;;;;;;4937102;28;20049;-72
2023/06/30 13:39:16;;;;;;;14.85;3.30;;;;;;;;;;4939437;28;20046;-74
2023/06/30 13:41:42;;;;;;;18.73;3.70;;;;;;;;;;4927271;28;20093;-71
2023/06/30 13:44:07;;;;;;;15.10;3.28;;;;;;;;;;4937645;28;20093;-70
2023/06/30 13:46:32;;;;;;;20.10;3.78;;;;;;;;;;4936913;28;20805;-70
2023/06/30 13:48:58;;;;;;;20.52;4.22;;;;;;;;;;4937565;28;20042;-70
2023/06/30 13:51:23;;;;;;;18.55;4.05;;;;;;;;;;4938066;28;20053;-70
2023/06/30 13:53:48;;;;;;;13.43;3.55;;;;;;;;;;4938611;28;20067;-69
2023/06/30 13:56:14;;;;;;;17.30;4.07;;;;;;;;;;4935320;28;20526;-72
2023/06/30 13:58:40;;;;;;;13.88;3.33;;;;;;;;;;4921144;28;20097;-70
2023/06/30 14:01:05;;;;;;;15.50;3.28;;;;;;;;;;4918082;28;20039;-71
2023/06/30 14:03:30;;;;;;;25.83;4.03;;;;;;;;;;4938515;28;20054;-67
2023/06/30 14:05:56;;;;;;;20.00;3.75;;;;;;;;;;4937142;28;20589;-70
2023/06/30 14:08:21;;;;;;;19.15;3.38;;;;;;;;;;4937833;28;20122;-70
2023/06/30 14:10:47;;;;;;;16.45;3.85;;;;;;;;;;4918849;28;20030;-73
2023/06/30 14:13:12;;;;;;;17.55;3.70;;;;;;;;;;4936476;28;20819;-69
2023/06/30 14:15:37;;;;;;;14.80;3.55;;;;;;;;;;4921593;28;20034;-72
2023/06/30 14:18:03;;;;;;;22.35;3.65;;;;;;;;;;4929267;28;20050;-70
2023/06/30 14:20:29;;;;;;;16.75;3.58;;;;;;;;;;4937404;28;20039;-71
2023/06/30 14:22:55;;;;;;;18.02;3.75;;;;;;;;;;4924768;28;20130;-71
2023/06/30 14:25:21;;;;;;;28.05;4.07;;;;;;;;;;4933235;28;20121;-71
2023/06/30 14:27:47;;;;;;;19.73;4.03;;;;;;;;;;4931126;28;20039;-72
2023/06/30 14:30:12;;;;;;;30.33;4.30;;;;;;;;;;4932708;28;20546;-71
2023/06/30 14:32:37;;;;;;;14.50;3.28;;;;;;;;;;4938199;28;20041;-70
2023/06/30 14:35:03;;;;;;;16.00;3.70;;;;;;;;;;4937918;28;20039;-72